createdAt,value
2023-03-23T15:59:00.125Z,25.20
2023-03-23T16:01:33.506Z,25.50
2023-03-23T16:04:12.864Z,25.12
2023-03-23T16:06:45.352Z,25.82
2023-03-23T16:09:21.615Z,26.30
2023-03-23T16:11:53.168Z,26.73
2023-03-23T16:14:24.510Z,26.57
2023-03-23T16:16:56.100Z,25.08
2023-03-23T16:19:28.620Z,26.07
2023-03-23T16:21:59.765Z,26.12
2023-03-23T16:24:31.208Z,25.20
2023-03-23T16:27:02.478Z,26.48
2023-03-23T16:32:09.015Z,26.48
2023-03-23T16:34:41.810Z,24.60
2023-03-23T16:37:19.875Z,25.50
2023-03-23T16:39:50.107Z,24.32
2023-03-23T16:42:21.593Z,26.40
2023-03-23T16:44:52.581Z,25.32
2023-03-23T16:47:25.626Z,25.70
2023-03-23T16:49:56.724Z,26.65
2023-03-23T16:52:29.698Z,26.77
2023-03-23T16:55:01.141Z,26.30
2023-03-23T16:57:32.587Z,26.23
2023-03-23T17:00:03.989Z,25.35
2023-03-23T17:02:38.977Z,25.50
2023-03-23T17:05:11.863Z,27.67
2023-03-23T17:07:46.325Z,26.70
2023-03-23T17:10:18.460Z,26.77
2023-03-23T17:12:49.815Z,26.25
2023-03-23T17:15:21.559Z,27.52
2023-03-23T17:17:53.349Z,26.05
2023-03-23T17:20:25.014Z,25.88
2023-03-23T17:22:56.286Z,26.10
2023-03-23T17:25:27.255Z,27.22
2023-03-23T17:28:05.553Z,28.17
2023-03-23T17:30:30.983Z,28.02
2023-03-23T17:33:02.010Z,26.60
2023-03-23T17:35:33.072Z,26.17
2023-03-23T17:38:04.282Z,26.45
2023-03-23T17:40:35.666Z,27.02
2023-03-23T17:43:07.930Z,26.80
2023-03-23T17:45:40.368Z,27.98
2023-03-23T17:48:11.922Z,28.25
2023-03-23T17:50:43.199Z,28.45
2023-03-23T17:53:14.408Z,27.52
2023-03-23T17:55:46.410Z,27.17
2023-03-23T17:58:18.428Z,27.75
2023-03-23T18:00:50.818Z,29.15
2023-03-23T18:03:22.011Z,27.70
2023-03-23T18:05:56.436Z,28.85
2023-03-23T18:08:31.068Z,28.62
2023-03-23T18:11:02.701Z,28.30
2023-03-23T18:13:37.213Z,27.75
2023-03-23T18:16:09.078Z,29.00
2023-03-23T18:18:40.817Z,29.12
2023-03-23T18:21:15.764Z,29.12
2023-03-23T18:23:58.275Z,28.12
2023-03-23T18:26:19.874Z,27.52
2023-03-23T18:28:53.117Z,27.22
2023-03-23T18:31:24.568Z,28.25
2023-03-23T18:33:56.417Z,27.20
2023-03-23T18:36:29.454Z,26.35
2023-03-23T18:39:01.210Z,27.37
2023-03-23T18:41:36.512Z,28.57
2023-03-23T18:44:09.135Z,28.02
2023-03-23T18:46:47.787Z,27.90
2023-03-23T18:49:19.183Z,28.05
2023-03-23T18:51:50.313Z,27.13
2023-03-23T18:54:21.424Z,28.45
2023-03-23T18:56:53.039Z,27.60
2023-03-23T18:59:25.244Z,26.73
2023-03-23T19:01:57.543Z,26.65
2023-03-23T19:04:30.178Z,28.05
2023-03-23T19:07:02.650Z,28.20
2023-03-23T19:09:35.876Z,26.35
2023-03-23T19:12:07.447Z,26.68
2023-03-23T19:14:40.416Z,27.45
2023-03-23T19:17:12.185Z,29.00
2023-03-23T19:19:43.821Z,29.37
2023-03-23T19:22:16.058Z,29.27
2023-03-23T19:24:47.761Z,30.02
2023-03-23T19:27:21.452Z,29.25
2023-03-23T19:29:53.079Z,30.55
2023-03-23T19:32:24.283Z,28.17
2023-03-23T19:34:55.497Z,27.42
2023-03-23T19:37:26.843Z,29.12
2023-03-23T19:39:59.293Z,28.85
2023-03-23T19:45:03.443Z,27.65
2023-03-23T19:47:35.664Z,28.15
2023-03-23T19:50:26.954Z,30.88
2023-03-23T19:52:59.544Z,29.12
2023-03-23T19:55:35.589Z,27.67
2023-03-23T19:58:06.848Z,26.15
2023-03-23T20:00:38.153Z,26.97
2023-03-23T20:03:09.410Z,26.42
2023-03-23T20:05:40.952Z,24.65
2023-03-23T20:08:12.745Z,25.92
2023-03-23T20:10:43.993Z,24.85
2023-03-23T20:13:15.205Z,26.27
2023-03-23T20:15:46.550Z,25.85
2023-03-23T20:18:19.118Z,26.02
2023-03-23T20:20:52.683Z,25.72
2023-03-23T20:23:24.057Z,25.65
2023-03-23T20:25:55.071Z,26.50
2023-03-23T20:28:28.441Z,25.88
2023-03-23T20:31:20.944Z,27.00
2023-03-23T20:33:45.709Z,27.15
2023-03-23T20:36:18.935Z,26.90
2023-03-23T20:38:51.651Z,26.37
2023-03-23T20:41:23.845Z,26.40
2023-03-23T20:43:55.416Z,27.82
2023-03-23T20:46:26.983Z,25.80
2023-03-23T20:48:58.646Z,26.65
2023-03-23T20:51:29.745Z,26.55
2023-03-23T20:54:02.048Z,26.33
2023-03-23T20:56:33.670Z,27.85
2023-03-23T20:59:05.161Z,28.52
2023-03-23T21:01:36.424Z,27.27
2023-03-23T21:04:09.265Z,27.75
2023-03-23T21:06:40.305Z,27.13
2023-03-23T21:09:11.524Z,27.17
2023-03-23T21:11:43.165Z,26.35
2023-03-23T21:14:15.262Z,27.50
2023-03-23T21:16:46.700Z,25.72
2023-03-23T21:19:18.194Z,26.48
2023-03-23T21:21:55.369Z,27.87
2023-03-23T21:24:23.294Z,31.30
2023-03-23T21:26:55.661Z,31.10
2023-03-23T21:29:27.025Z,30.10
2023-03-23T21:34:30.962Z,28.35
2023-03-23T21:37:02.491Z,27.65
2023-03-23T21:39:34.755Z,27.95
2023-03-23T21:42:07.406Z,27.93
2023-03-23T21:44:40.194Z,27.93
2023-03-23T21:47:16.093Z,27.30
2023-03-23T21:49:47.416Z,28.67
2023-03-23T21:52:19.048Z,28.57
2023-03-23T21:54:50.269Z,29.30
2023-03-23T21:57:21.991Z,29.20
2023-03-23T21:59:53.340Z,28.73
2023-03-23T22:02:24.583Z,27.95
2023-03-23T22:07:48.094Z,28.42
2023-03-23T22:10:19.532Z,28.47
2023-03-23T22:12:54.334Z,29.55
2023-03-23T22:15:26.409Z,28.25
2023-03-23T22:18:01.085Z,29.20
2023-03-23T22:20:33.581Z,29.48
2023-03-23T22:23:04.879Z,28.05
2023-03-23T22:25:37.649Z,29.27
2023-03-23T22:33:47.844Z,28.60
2023-03-23T22:36:19.899Z,27.90
2023-03-23T22:38:52.574Z,28.80
2023-03-23T22:41:26.583Z,27.05
2023-03-23T22:43:58.125Z,29.85
2023-03-23T22:49:17.287Z,29.75
2023-03-23T22:51:48.594Z,29.85
2023-03-23T22:54:20.452Z,28.40
2023-03-23T22:56:52.274Z,29.55
2023-03-23T22:59:23.582Z,30.23
2023-03-23T23:01:54.933Z,30.40
2023-03-23T23:04:26.101Z,30.55
2023-03-23T23:07:10.059Z,29.18
2023-03-23T23:12:18.302Z,30.23
2023-03-23T23:14:49.282Z,29.18
2023-03-23T23:17:20.300Z,34.75
2023-03-23T23:19:51.900Z,28.52
2023-03-23T23:22:23.238Z,29.02
2023-03-23T23:27:42.435Z,28.67
2023-03-23T23:30:14.990Z,28.95
2023-03-23T23:32:46.382Z,29.02
2023-03-23T23:35:18.861Z,29.90
2023-03-23T23:37:50.772Z,31.73
2023-03-23T23:40:22.825Z,31.40
2023-03-23T23:42:54.479Z,32.48
2023-03-23T23:45:25.539Z,33.58
2023-03-23T23:47:56.948Z,33.80
2023-03-23T23:50:28.212Z,33.15
2023-03-23T23:53:00.202Z,30.82
2023-03-23T23:55:32.562Z,30.77
2023-03-23T23:58:04.030Z,30.90
